sensor_id;sensor_type;location;lat;lon;timestamp;temperature;humidity
17423;DHT22;8829;47.932;7.810;2024-02-26T00:01:54;8.40;99.90
17423;DHT22;8829;47.932;7.810;2024-02-26T00:04:21;8.40;99.90
17423;DHT22;8829;47.932;7.810;2024-02-26T00:06:48;8.40;99.90
17423;DHT22;8829;47.932;7.810;2024-02-26T00:09:16;8.20;99.90
17423;DHT22;8829;47.932;7.810;2024-02-26T00:11:43;8.10;99.90
17423;DHT22;8829;47.932;7.810;2024-02-26T00:14:10;8.10;99.90
17423;DHT22;8829;47.932;7.810;2024-02-26T00:16:39;8.10;99.90
17423;DHT22;8829;47.932;7.810;2024-02-26T00:19:06;8.10;99.90
17423;DHT22;8829;47.932;7.810;2024-02-26T00:21:33;7.90;99.90
17423;DHT22;8829;47.932;7.810;2024-02-26T00:24:00;7.80;99.90
17423;DHT22;8829;47.932;7.810;2024-02-26T00:26:26;7.60;99.90
17423;DHT22;8829;47.932;7.810;2024-02-26T00:28:53;7.70;99.90
17423;DHT22;8829;47.932;7.810;2024-02-26T00:31:19;7.80;99.90
17423;DHT22;8829;47.932;7.810;2024-02-26T00:33:47;7.80;99.90
17423;DHT22;8829;47.932;7.810;2024-02-26T00:36:14;7.80;99.90
17423;DHT22;8829;47.932;7.810;2024-02-26T00:38:41;7.80;99.90
17423;DHT22;8829;47.932;7.810;2024-02-26T00:41:08;7.90;99.90
17423;DHT22;8829;47.932;7.810;2024-02-26T00:43:35;7.80;99.90
17423;DHT22;8829;47.932;7.810;2024-02-26T00:46:03;7.70;99.90
17423;DHT22;8829;47.932;7.810;2024-02-26T00:48:30;7.70;99.90
17423;DHT22;8829;47.932;7.810;2024-02-26T00:50:58;7.80;99.90
17423;DHT22;8829;47.932;7.810;2024-02-26T00:53:24;7.80;99.90
17423;DHT22;8829;47.932;7.810;2024-02-26T00:55:51;7.70;99.90
17423;DHT22;8829;47.932;7.810;2024-02-26T00:58:18;7.70;99.90
17423;DHT22;8829;47.932;7.810;2024-02-26T01:00:45;7.60;99.90
17423;DHT22;8829;47.932;7.810;2024-02-26T01:03:12;7.70;99.90
17423;DHT22;8829;47.932;7.810;2024-02-26T01:05:38;7.70;99.90
17423;DHT22;8829;47.932;7.810;2024-02-26T01:08:07;7.80;99.90
17423;DHT22;8829;47.932;7.810;2024-02-26T01:10:33;7.80;99.90
17423;DHT22;8829;47.932;7.810;2024-02-26T01:13:00;7.70;99.90
17423;DHT22;8829;47.932;7.810;2024-02-26T01:15:27;7.60;99.90
17423;DHT22;8829;47.932;7.810;2024-02-26T01:17:54;7.70;99.90
17423;DHT22;8829;47.932;7.810;2024-02-26T01:20:20;7.70;99.90
17423;DHT22;8829;47.932;7.810;2024-02-26T01:22:47;7.80;99.90
17423;DHT22;8829;47.932;7.810;2024-02-26T01:25:15;7.80;99.90
17423;DHT22;8829;47.932;7.810;2024-02-26T01:27:42;7.90;99.90
17423;DHT22;8829;47.932;7.810;2024-02-26T01:30:10;8.00;99.90
17423;DHT22;8829;47.932;7.810;2024-02-26T01:32:37;8.00;99.90
17423;DHT22;8829;47.932;7.810;2024-02-26T01:35:04;8.00;99.90
17423;DHT22;8829;47.932;7.810;2024-02-26T01:37:33;8.00;99.90
17423;DHT22;8829;47.932;7.810;2024-02-26T01:40:00;7.90;99.90
17423;DHT22;8829;47.932;7.810;2024-02-26T01:42:30;8.00;99.90
17423;DHT22;8829;47.932;7.810;2024-02-26T01:44:57;8.10;99.90
17423;DHT22;8829;47.932;7.810;2024-02-26T01:47:25;8.10;99.90
17423;DHT22;8829;47.932;7.810;2024-02-26T01:49:53;8.10;99.90
17423;DHT22;8829;47.932;7.810;2024-02-26T01:52:21;8.10;99.90
17423;DHT22;8829;47.932;7.810;2024-02-26T01:54:48;8.20;99.90
17423;DHT22;8829;47.932;7.810;2024-02-26T01:57:16;8.20;99.90
17423;DHT22;8829;47.932;7.810;2024-02-26T01:59:45;8.30;99.90
17423;DHT22;8829;47.932;7.810;2024-02-26T02:02:12;8.30;99.90
17423;DHT22;8829;47.932;7.810;2024-02-26T02:04:39;8.40;99.90
17423;DHT22;8829;47.932;7.810;2024-02-26T02:07:06;8.40;99.90
17423;DHT22;8829;47.932;7.810;2024-02-26T02:09:33;8.40;99.90
17423;DHT22;8829;47.932;7.810;2024-02-26T02:12:00;8.40;99.90
17423;DHT22;8829;47.932;7.810;2024-02-26T02:14:27;8.50;99.90
17423;DHT22;8829;47.932;7.810;2024-02-26T02:16:55;8.60;99.90
17423;DHT22;8829;47.932;7.810;2024-02-26T02:19:21;8.60;99.90
17423;DHT22;8829;47.932;7.810;2024-02-26T02:21:49;8.60;99.90
17423;DHT22;8829;47.932;7.810;2024-02-26T02:24:16;8.60;99.90
17423;DHT22;8829;47.932;7.810;2024-02-26T02:26:43;8.50;99.90
17423;DHT22;8829;47.932;7.810;2024-02-26T02:29:10;8.20;99.90
17423;DHT22;8829;47.932;7.810;2024-02-26T02:31:38;8.10;99.90
17423;DHT22;8829;47.932;7.810;2024-02-26T02:34:05;8.00;99.90
17423;DHT22;8829;47.932;7.810;2024-02-26T02:36:32;7.90;99.90
17423;DHT22;8829;47.932;7.810;2024-02-26T02:39:00;8.00;99.90
17423;DHT22;8829;47.932;7.810;2024-02-26T02:41:26;7.90;99.90
17423;DHT22;8829;47.932;7.810;2024-02-26T02:43:55;7.80;99.90
17423;DHT22;8829;47.932;7.810;2024-02-26T02:46:22;7.80;99.90
17423;DHT22;8829;47.932;7.810;2024-02-26T02:48:48;7.70;99.90
17423;DHT22;8829;47.932;7.810;2024-02-26T02:51:15;7.80;99.90
17423;DHT22;8829;47.932;7.810;2024-02-26T02:53:42;7.80;99.90
17423;DHT22;8829;47.932;7.810;2024-02-26T02:56:10;7.80;99.90
17423;DHT22;8829;47.932;7.810;2024-02-26T02:58:36;7.80;99.90
17423;DHT22;8829;47.932;7.810;2024-02-26T03:01:03;7.80;99.90
17423;DHT22;8829;47.932;7.810;2024-02-26T03:03:30;7.90;99.90
17423;DHT22;8829;47.932;7.810;2024-02-26T03:05:56;7.90;99.90
17423;DHT22;8829;47.932;7.810;2024-02-26T03:08:23;7.90;99.90
17423;DHT22;8829;47.932;7.810;2024-02-26T03:10:51;7.90;99.90
17423;DHT22;8829;47.932;7.810;2024-02-26T03:13:19;7.80;99.90
17423;DHT22;8829;47.932;7.810;2024-02-26T03:15:46;7.90;99.90
17423;DHT22;8829;47.932;7.810;2024-02-26T03:18:12;7.80;99.90
17423;DHT22;8829;47.932;7.810;2024-02-26T03:20:39;7.70;99.90
17423;DHT22;8829;47.932;7.810;2024-02-26T03:23:06;7.80;99.90
17423;DHT22;8829;47.932;7.810;2024-02-26T03:25:35;7.70;99.90
17423;DHT22;8829;47.932;7.810;2024-02-26T03:28:01;7.70;99.90
17423;DHT22;8829;47.932;7.810;2024-02-26T03:30:29;7.60;99.90
17423;DHT22;8829;47.932;7.810;2024-02-26T03:32:56;7.50;99.90
17423;DHT22;8829;47.932;7.810;2024-02-26T03:35:23;7.40;99.90
17423;DHT22;8829;47.932;7.810;2024-02-26T03:37:49;7.00;99.90
17423;DHT22;8829;47.932;7.810;2024-02-26T03:40:17;7.00;99.90
17423;DHT22;8829;47.932;7.810;2024-02-26T03:42:45;6.80;99.90
17423;DHT22;8829;47.932;7.810;2024-02-26T03:45:11;6.60;99.90
17423;DHT22;8829;47.932;7.810;2024-02-26T03:47:40;6.70;99.90
17423;DHT22;8829;47.932;7.810;2024-02-26T03:50:07;6.60;99.90
17423;DHT22;8829;47.932;7.810;2024-02-26T03:52:34;6.50;99.90
17423;DHT22;8829;47.932;7.810;2024-02-26T03:55:01;6.60;99.90
17423;DHT22;8829;47.932;7.810;2024-02-26T03:57:27;6.40;99.90
17423;DHT22;8829;47.932;7.810;2024-02-26T03:59:54;6.50;99.90
17423;DHT22;8829;47.932;7.810;2024-02-26T04:02:21;6.50;99.90
17423;DHT22;8829;47.932;7.810;2024-02-26T04:04:49;6.60;99.90
17423;DHT22;8829;47.932;7.810;2024-02-26T04:07:16;6.40;99.90
17423;DHT22;8829;47.932;7.810;2024-02-26T04:09:44;6.30;99.90
17423;DHT22;8829;47.932;7.810;2024-02-26T04:12:11;6.40;99.90
17423;DHT22;8829;47.932;7.810;2024-02-26T04:14:37;6.60;99.90
17423;DHT22;8829;47.932;7.810;2024-02-26T04:17:04;6.90;99.90
17423;DHT22;8829;47.932;7.810;2024-02-26T04:19:31;6.90;99.90
17423;DHT22;8829;47.932;7.810;2024-02-26T04:21:59;7.00;99.90
17423;DHT22;8829;47.932;7.810;2024-02-26T04:24:26;7.10;99.90
17423;DHT22;8829;47.932;7.810;2024-02-26T04:26:52;7.30;99.90
17423;DHT22;8829;47.932;7.810;2024-02-26T04:29:19;7.20;99.90
17423;DHT22;8829;47.932;7.810;2024-02-26T04:31:46;7.30;99.90
17423;DHT22;8829;47.932;7.810;2024-02-26T04:34:13;7.30;99.90
17423;DHT22;8829;47.932;7.810;2024-02-26T04:36:42;7.40;99.90
17423;DHT22;8829;47.932;7.810;2024-02-26T04:39:10;7.20;99.90
17423;DHT22;8829;47.932;7.810;2024-02-26T04:41:37;7.00;99.90
17423;DHT22;8829;47.932;7.810;2024-02-26T04:44:04;7.00;99.90
17423;DHT22;8829;47.932;7.810;2024-02-26T04:46:31;7.00;99.90
17423;DHT22;8829;47.932;7.810;2024-02-26T04:48:57;6.80;99.90
17423;DHT22;8829;47.932;7.810;2024-02-26T04:51:24;6.80;99.90
17423;DHT22;8829;47.932;7.810;2024-02-26T04:53:51;6.80;99.90
17423;DHT22;8829;47.932;7.810;2024-02-26T04:56:20;6.70;99.90
17423;DHT22;8829;47.932;7.810;2024-02-26T04:58:47;6.70;99.90
17423;DHT22;8829;47.932;7.810;2024-02-26T05:01:13;6.60;99.90
17423;DHT22;8829;47.932;7.810;2024-02-26T05:03:41;6.60;99.90
17423;DHT22;8829;47.932;7.810;2024-02-26T05:06:08;6.60;99.90
17423;DHT22;8829;47.932;7.810;2024-02-26T05:08:35;6.60;99.90
17423;DHT22;8829;47.932;7.810;2024-02-26T05:11:04;6.60;99.90
17423;DHT22;8829;47.932;7.810;2024-02-26T05:13:32;6.60;99.90
17423;DHT22;8829;47.932;7.810;2024-02-26T05:15:59;6.50;99.90
17423;DHT22;8829;47.932;7.810;2024-02-26T05:18:26;6.50;99.90
17423;DHT22;8829;47.932;7.810;2024-02-26T05:20:52;6.60;99.90
17423;DHT22;8829;47.932;7.810;2024-02-26T05:23:19;6.60;99.90
17423;DHT22;8829;47.932;7.810;2024-02-26T05:25:46;6.60;99.90
17423;DHT22;8829;47.932;7.810;2024-02-26T05:28:13;6.80;99.90
17423;DHT22;8829;47.932;7.810;2024-02-26T05:30:42;7.00;99.90
17423;DHT22;8829;47.932;7.810;2024-02-26T05:33:09;7.10;99.90
17423;DHT22;8829;47.932;7.810;2024-02-26T05:35:36;7.30;99.90
17423;DHT22;8829;47.932;7.810;2024-02-26T05:38:03;7.40;99.90
17423;DHT22;8829;47.932;7.810;2024-02-26T05:40:30;7.50;99.90
17423;DHT22;8829;47.932;7.810;2024-02-26T05:42:57;7.60;99.90
17423;DHT22;8829;47.932;7.810;2024-02-26T05:45:23;7.70;99.90
17423;DHT22;8829;47.932;7.810;2024-02-26T05:47:51;7.80;99.90
17423;DHT22;8829;47.932;7.810;2024-02-26T05:50:18;7.80;99.90
17423;DHT22;8829;47.932;7.810;2024-02-26T05:52:45;7.80;99.90
17423;DHT22;8829;47.932;7.810;2024-02-26T05:55:11;8.00;99.90
17423;DHT22;8829;47.932;7.810;2024-02-26T05:57:39;8.00;99.90
17423;DHT22;8829;47.932;7.810;2024-02-26T06:00:07;8.10;99.90
17423;DHT22;8829;47.932;7.810;2024-02-26T06:02:33;8.10;99.90
17423;DHT22;8829;47.932;7.810;2024-02-26T06:05:02;8.20;99.90
17423;DHT22;8829;47.932;7.810;2024-02-26T06:07:29;8.30;99.90
17423;DHT22;8829;47.932;7.810;2024-02-26T06:09:55;8.40;99.90
17423;DHT22;8829;47.932;7.810;2024-02-26T06:12:22;8.40;99.90
17423;DHT22;8829;47.932;7.810;2024-02-26T06:14:49;8.40;99.90
17423;DHT22;8829;47.932;7.810;2024-02-26T06:17:16;8.30;99.90
17423;DHT22;8829;47.932;7.810;2024-02-26T06:19:42;8.30;99.90
17423;DHT22;8829;47.932;7.810;2024-02-26T06:22:10;8.20;99.90
17423;DHT22;8829;47.932;7.810;2024-02-26T06:24:37;8.10;99.90
17423;DHT22;8829;47.932;7.810;2024-02-26T06:27:04;8.20;99.90
17423;DHT22;8829;47.932;7.810;2024-02-26T06:29:31;8.20;99.90
17423;DHT22;8829;47.932;7.810;2024-02-26T06:31:57;8.20;99.90
17423;DHT22;8829;47.932;7.810;2024-02-26T06:34:24;8.20;99.90
17423;DHT22;8829;47.932;7.810;2024-02-26T06:36:51;8.20;99.90
17423;DHT22;8829;47.932;7.810;2024-02-26T06:39:19;8.20;99.90
17423;DHT22;8829;47.932;7.810;2024-02-26T06:41:46;8.10;99.90
17423;DHT22;8829;47.932;7.810;2024-02-26T06:44:13;8.00;99.90
17423;DHT22;8829;47.932;7.810;2024-02-26T06:46:40;7.90;99.90
17423;DHT22;8829;47.932;7.810;2024-02-26T06:49:07;8.00;99.90
17423;DHT22;8829;47.932;7.810;2024-02-26T06:51:34;8.00;99.90
17423;DHT22;8829;47.932;7.810;2024-02-26T06:54:00;7.80;99.90
17423;DHT22;8829;47.932;7.810;2024-02-26T06:56:28;7.60;99.90
17423;DHT22;8829;47.932;7.810;2024-02-26T06:58:55;7.60;99.90
17423;DHT22;8829;47.932;7.810;2024-02-26T07:01:22;7.70;99.90
17423;DHT22;8829;47.932;7.810;2024-02-26T07:03:48;7.80;99.90
17423;DHT22;8829;47.932;7.810;2024-02-26T07:06:15;7.80;99.90
17423;DHT22;8829;47.932;7.810;2024-02-26T07:08:42;7.70;99.90
17423;DHT22;8829;47.932;7.810;2024-02-26T07:11:08;7.50;99.90
17423;DHT22;8829;47.932;7.810;2024-02-26T07:13:37;7.40;99.90
17423;DHT22;8829;47.932;7.810;2024-02-26T07:16:07;7.40;99.90
17423;DHT22;8829;47.932;7.810;2024-02-26T07:18:36;7.30;99.90
17423;DHT22;8829;47.932;7.810;2024-02-26T07:21:03;7.30;99.90
17423;DHT22;8829;47.932;7.810;2024-02-26T07:23:30;7.30;99.90
17423;DHT22;8829;47.932;7.810;2024-02-26T07:25:56;7.20;99.90
17423;DHT22;8829;47.932;7.810;2024-02-26T07:28:23;7.40;99.90
17423;DHT22;8829;47.932;7.810;2024-02-26T07:30:51;7.40;99.90
17423;DHT22;8829;47.932;7.810;2024-02-26T07:33:18;7.50;99.90
17423;DHT22;8829;47.932;7.810;2024-02-26T07:35:45;7.60;99.90
17423;DHT22;8829;47.932;7.810;2024-02-26T07:38:12;7.70;99.90
17423;DHT22;8829;47.932;7.810;2024-02-26T07:40:39;7.80;99.90
17423;DHT22;8829;47.932;7.810;2024-02-26T07:43:06;7.90;99.90
17423;DHT22;8829;47.932;7.810;2024-02-26T07:45:32;7.80;99.90
17423;DHT22;8829;47.932;7.810;2024-02-26T07:48:02;7.90;99.90
17423;DHT22;8829;47.932;7.810;2024-02-26T07:50:29;7.90;99.90
17423;DHT22;8829;47.932;7.810;2024-02-26T07:52:55;8.00;99.90
17423;DHT22;8829;47.932;7.810;2024-02-26T07:55:22;8.00;99.90
17423;DHT22;8829;47.932;7.810;2024-02-26T07:57:49;8.20;99.90
17423;DHT22;8829;47.932;7.810;2024-02-26T08:00:16;8.30;99.90
17423;DHT22;8829;47.932;7.810;2024-02-26T08:02:43;8.20;99.90
17423;DHT22;8829;47.932;7.810;2024-02-26T08:05:11;8.20;99.90
17423;DHT22;8829;47.932;7.810;2024-02-26T08:07:37;8.30;99.90
17423;DHT22;8829;47.932;7.810;2024-02-26T08:10:04;8.30;99.90
17423;DHT22;8829;47.932;7.810;2024-02-26T08:12:31;8.30;99.90
17423;DHT22;8829;47.932;7.810;2024-02-26T08:14:58;8.50;99.90
17423;DHT22;8829;47.932;7.810;2024-02-26T08:17:25;8.70;99.90
17423;DHT22;8829;47.932;7.810;2024-02-26T08:19:52;8.70;99.90
17423;DHT22;8829;47.932;7.810;2024-02-26T08:22:20;8.90;99.90
17423;DHT22;8829;47.932;7.810;2024-02-26T08:24:47;9.10;99.90
17423;DHT22;8829;47.932;7.810;2024-02-26T08:27:14;9.30;99.90
17423;DHT22;8829;47.932;7.810;2024-02-26T08:29:40;9.40;99.90
17423;DHT22;8829;47.932;7.810;2024-02-26T08:32:07;9.60;99.90
17423;DHT22;8829;47.932;7.810;2024-02-26T08:34:34;9.70;99.90
17423;DHT22;8829;47.932;7.810;2024-02-26T08:37:02;9.70;99.90
17423;DHT22;8829;47.932;7.810;2024-02-26T08:39:30;9.70;99.90
17423;DHT22;8829;47.932;7.810;2024-02-26T08:41:56;9.70;99.90
17423;DHT22;8829;47.932;7.810;2024-02-26T08:44:23;9.80;99.90
17423;DHT22;8829;47.932;7.810;2024-02-26T08:46:51;9.90;99.90
17423;DHT22;8829;47.932;7.810;2024-02-26T08:49:18;9.90;99.90
17423;DHT22;8829;47.932;7.810;2024-02-26T08:51:45;10.00;99.90
17423;DHT22;8829;47.932;7.810;2024-02-26T08:54:12;10.00;99.90
17423;DHT22;8829;47.932;7.810;2024-02-26T08:56:40;10.10;99.90
17423;DHT22;8829;47.932;7.810;2024-02-26T08:59:06;10.20;99.90
17423;DHT22;8829;47.932;7.810;2024-02-26T09:01:33;10.10;99.90
17423;DHT22;8829;47.932;7.810;2024-02-26T09:04:00;10.10;99.90
17423;DHT22;8829;47.932;7.810;2024-02-26T09:06:27;10.00;99.90
17423;DHT22;8829;47.932;7.810;2024-02-26T09:08:54;9.80;99.90
17423;DHT22;8829;47.932;7.810;2024-02-26T09:11:21;9.70;99.90
17423;DHT22;8829;47.932;7.810;2024-02-26T09:13:49;9.70;99.90
17423;DHT22;8829;47.932;7.810;2024-02-26T09:16:16;9.70;99.90
17423;DHT22;8829;47.932;7.810;2024-02-26T09:18:42;9.90;99.90
17423;DHT22;8829;47.932;7.810;2024-02-26T09:21:09;9.90;99.90
17423;DHT22;8829;47.932;7.810;2024-02-26T09:26:05;9.60;99.90
17423;DHT22;8829;47.932;7.810;2024-02-26T09:28:31;9.30;99.90
17423;DHT22;8829;47.932;7.810;2024-02-26T09:31:04;9.30;99.90
17423;DHT22;8829;47.932;7.810;2024-02-26T09:33:30;9.50;99.90
17423;DHT22;8829;47.932;7.810;2024-02-26T09:35:57;9.50;99.90
17423;DHT22;8829;47.932;7.810;2024-02-26T09:38:25;9.40;99.90
17423;DHT22;8829;47.932;7.810;2024-02-26T09:40:52;9.40;99.90
17423;DHT22;8829;47.932;7.810;2024-02-26T09:43:22;9.50;99.90
17423;DHT22;8829;47.932;7.810;2024-02-26T09:45:50;9.60;99.90
17423;DHT22;8829;47.932;7.810;2024-02-26T09:48:18;9.70;99.90
17423;DHT22;8829;47.932;7.810;2024-02-26T09:50:46;9.70;99.90
17423;DHT22;8829;47.932;7.810;2024-02-26T09:53:13;9.90;99.90
17423;DHT22;8829;47.932;7.810;2024-02-26T09:55:40;10.00;99.90
17423;DHT22;8829;47.932;7.810;2024-02-26T09:58:07;10.10;99.90
17423;DHT22;8829;47.932;7.810;2024-02-26T10:00:37;10.00;99.90
17423;DHT22;8829;47.932;7.810;2024-02-26T10:03:05;9.50;99.90
17423;DHT22;8829;47.932;7.810;2024-02-26T10:05:34;9.60;99.90
17423;DHT22;8829;47.932;7.810;2024-02-26T10:08:01;9.60;99.90
17423;DHT22;8829;47.932;7.810;2024-02-26T10:10:29;9.90;99.90
17423;DHT22;8829;47.932;7.810;2024-02-26T10:12:57;10.20;99.90
17423;DHT22;8829;47.932;7.810;2024-02-26T10:15:24;10.40;99.90
17423;DHT22;8829;47.932;7.810;2024-02-26T10:17:51;10.70;99.90
17423;DHT22;8829;47.932;7.810;2024-02-26T10:20:18;10.80;99.90
17423;DHT22;8829;47.932;7.810;2024-02-26T10:22:48;10.90;99.90
17423;DHT22;8829;47.932;7.810;2024-02-26T10:25:15;11.10;99.90
17423;DHT22;8829;47.932;7.810;2024-02-26T10:27:42;10.70;99.90
17423;DHT22;8829;47.932;7.810;2024-02-26T10:30:19;10.40;99.90
17423;DHT22;8829;47.932;7.810;2024-02-26T10:32:47;10.40;99.90
17423;DHT22;8829;47.932;7.810;2024-02-26T10:35:14;10.40;99.90
17423;DHT22;8829;47.932;7.810;2024-02-26T10:37:42;10.70;99.90
17423;DHT22;8829;47.932;7.810;2024-02-26T10:40:12;10.70;99.90
17423;DHT22;8829;47.932;7.810;2024-02-26T10:42:39;10.30;99.90
17423;DHT22;8829;47.932;7.810;2024-02-26T10:45:06;10.20;99.90
17423;DHT22;8829;47.932;7.810;2024-02-26T10:47:34;10.10;99.90
17423;DHT22;8829;47.932;7.810;2024-02-26T10:50:02;10.20;99.90
17423;DHT22;8829;47.932;7.810;2024-02-26T10:52:31;10.30;99.90
17423;DHT22;8829;47.932;7.810;2024-02-26T10:55:00;10.20;99.90
17423;DHT22;8829;47.932;7.810;2024-02-26T10:57:29;10.40;99.90
17423;DHT22;8829;47.932;7.810;2024-02-26T10:59:59;10.60;99.90
17423;DHT22;8829;47.932;7.810;2024-02-26T11:02:26;10.70;99.90
17423;DHT22;8829;47.932;7.810;2024-02-26T11:04:53;11.00;99.90
17423;DHT22;8829;47.932;7.810;2024-02-26T11:07:21;11.10;99.90
17423;DHT22;8829;47.932;7.810;2024-02-26T11:09:49;11.00;99.90
17423;DHT22;8829;47.932;7.810;2024-02-26T11:12:18;11.10;99.90
17423;DHT22;8829;47.932;7.810;2024-02-26T11:14:46;11.10;99.90
17423;DHT22;8829;47.932;7.810;2024-02-26T11:17:15;11.30;99.90
17423;DHT22;8829;47.932;7.810;2024-02-26T11:19:43;11.60;99.90
17423;DHT22;8829;47.932;7.810;2024-02-26T11:22:11;11.70;99.90
17423;DHT22;8829;47.932;7.810;2024-02-26T11:24:38;11.80;99.90
17423;DHT22;8829;47.932;7.810;2024-02-26T11:27:07;11.90;99.90
17423;DHT22;8829;47.932;7.810;2024-02-26T11:29:39;12.10;99.90
17423;DHT22;8829;47.932;7.810;2024-02-26T11:32:08;12.40;99.90
17423;DHT22;8829;47.932;7.810;2024-02-26T11:34:36;12.50;99.90
17423;DHT22;8829;47.932;7.810;2024-02-26T11:37:09;12.50;99.90
17423;DHT22;8829;47.932;7.810;2024-02-26T11:39:36;12.50;99.90
17423;DHT22;8829;47.932;7.810;2024-02-26T11:42:08;12.70;99.90
17423;DHT22;8829;47.932;7.810;2024-02-26T11:44:35;12.80;99.90
17423;DHT22;8829;47.932;7.810;2024-02-26T11:47:11;12.70;99.90
17423;DHT22;8829;47.932;7.810;2024-02-26T11:49:38;12.70;99.90
17423;DHT22;8829;47.932;7.810;2024-02-26T11:52:08;12.50;99.90
17423;DHT22;8829;47.932;7.810;2024-02-26T11:54:45;12.40;99.90
17423;DHT22;8829;47.932;7.810;2024-02-26T11:57:25;12.40;99.90
17423;DHT22;8829;47.932;7.810;2024-02-26T11:59:53;12.40;99.90
17423;DHT22;8829;47.932;7.810;2024-02-26T12:02:41;12.50;99.90
17423;DHT22;8829;47.932;7.810;2024-02-26T12:05:10;12.70;99.90
17423;DHT22;8829;47.932;7.810;2024-02-26T12:07:40;12.70;99.90
17423;DHT22;8829;47.932;7.810;2024-02-26T12:10:15;12.70;99.90
17423;DHT22;8829;47.932;7.810;2024-02-26T12:12:42;12.70;99.90
17423;DHT22;8829;47.932;7.810;2024-02-26T12:15:09;12.70;99.90
17423;DHT22;8829;47.932;7.810;2024-02-26T12:17:38;12.80;99.90
17423;DHT22;8829;47.932;7.810;2024-02-26T12:20:21;12.80;99.90
17423;DHT22;8829;47.932;7.810;2024-02-26T12:22:50;12.90;99.90
17423;DHT22;8829;47.932;7.810;2024-02-26T12:25:22;13.00;99.90
17423;DHT22;8829;47.932;7.810;2024-02-26T12:27:50;12.80;99.90
17423;DHT22;8829;47.932;7.810;2024-02-26T12:30:17;12.80;99.90
17423;DHT22;8829;47.932;7.810;2024-02-26T12:32:44;12.80;99.90
17423;DHT22;8829;47.932;7.810;2024-02-26T12:35:12;12.90;99.90
17423;DHT22;8829;47.932;7.810;2024-02-26T12:37:40;12.90;99.90
17423;DHT22;8829;47.932;7.810;2024-02-26T12:40:09;12.80;99.90
17423;DHT22;8829;47.932;7.810;2024-02-26T12:42:36;13.00;99.90
17423;DHT22;8829;47.932;7.810;2024-02-26T12:45:07;13.00;99.90
17423;DHT22;8829;47.932;7.810;2024-02-26T12:47:36;13.00;99.90
17423;DHT22;8829;47.932;7.810;2024-02-26T12:50:03;13.00;99.90
17423;DHT22;8829;47.932;7.810;2024-02-26T12:52:33;13.10;99.90
17423;DHT22;8829;47.932;7.810;2024-02-26T12:55:01;13.40;99.90
17423;DHT22;8829;47.932;7.810;2024-02-26T12:57:29;13.40;99.90
17423;DHT22;8829;47.932;7.810;2024-02-26T12:59:57;13.50;99.90
17423;DHT22;8829;47.932;7.810;2024-02-26T13:02:24;13.30;99.90
17423;DHT22;8829;47.932;7.810;2024-02-26T13:04:52;13.30;99.90
17423;DHT22;8829;47.932;7.810;2024-02-26T13:07:20;13.20;99.90
17423;DHT22;8829;47.932;7.810;2024-02-26T13:09:48;13.10;99.90
17423;DHT22;8829;47.932;7.810;2024-02-26T13:12:16;12.90;99.90
17423;DHT22;8829;47.932;7.810;2024-02-26T13:14:43;12.90;99.90
17423;DHT22;8829;47.932;7.810;2024-02-26T13:17:10;12.80;99.90
17423;DHT22;8829;47.932;7.810;2024-02-26T13:19:36;12.60;99.90
17423;DHT22;8829;47.932;7.810;2024-02-26T13:22:04;12.60;99.90
17423;DHT22;8829;47.932;7.810;2024-02-26T13:24:31;12.70;99.90
17423;DHT22;8829;47.932;7.810;2024-02-26T13:29:28;12.70;99.90
17423;DHT22;8829;47.932;7.810;2024-02-26T13:31:55;12.70;99.90
17423;DHT22;8829;47.932;7.810;2024-02-26T13:34:25;12.80;99.90
17423;DHT22;8829;47.932;7.810;2024-02-26T13:36:52;12.10;99.90
17423;DHT22;8829;47.932;7.810;2024-02-26T13:39:22;12.10;99.90
17423;DHT22;8829;47.932;7.810;2024-02-26T13:41:49;12.30;99.90
17423;DHT22;8829;47.932;7.810;2024-02-26T13:44:18;12.30;99.90
17423;DHT22;8829;47.932;7.810;2024-02-26T13:46:45;12.10;99.90
17423;DHT22;8829;47.932;7.810;2024-02-26T13:49:11;12.00;99.90
17423;DHT22;8829;47.932;7.810;2024-02-26T13:51:38;11.90;99.90
17423;DHT22;8829;47.932;7.810;2024-02-26T13:54:05;12.10;99.90
17423;DHT22;8829;47.932;7.810;2024-02-26T13:56:32;12.30;99.90
17423;DHT22;8829;47.932;7.810;2024-02-26T13:58:59;12.30;99.90
17423;DHT22;8829;47.932;7.810;2024-02-26T14:01:27;12.20;99.90
17423;DHT22;8829;47.932;7.810;2024-02-26T14:03:54;12.30;99.90
17423;DHT22;8829;47.932;7.810;2024-02-26T14:06:23;12.30;99.90
17423;DHT22;8829;47.932;7.810;2024-02-26T14:08:49;12.40;99.90
17423;DHT22;8829;47.932;7.810;2024-02-26T14:11:16;12.60;99.90
17423;DHT22;8829;47.932;7.810;2024-02-26T14:13:43;12.60;99.90
17423;DHT22;8829;47.932;7.810;2024-02-26T14:16:12;12.50;99.90
17423;DHT22;8829;47.932;7.810;2024-02-26T14:18:40;12.30;99.90
17423;DHT22;8829;47.932;7.810;2024-02-26T14:21:09;12.40;99.90
17423;DHT22;8829;47.932;7.810;2024-02-26T14:23:36;12.40;99.90
17423;DHT22;8829;47.932;7.810;2024-02-26T14:26:03;12.50;99.90
17423;DHT22;8829;47.932;7.810;2024-02-26T14:28:30;12.60;99.90
17423;DHT22;8829;47.932;7.810;2024-02-26T14:30:57;12.50;99.90
17423;DHT22;8829;47.932;7.810;2024-02-26T14:33:24;12.80;99.90
17423;DHT22;8829;47.932;7.810;2024-02-26T14:35:52;13.00;99.90
17423;DHT22;8829;47.932;7.810;2024-02-26T14:38:18;13.10;99.90
17423;DHT22;8829;47.932;7.810;2024-02-26T14:40:45;13.00;99.90
17423;DHT22;8829;47.932;7.810;2024-02-26T14:43:12;12.90;99.90
17423;DHT22;8829;47.932;7.810;2024-02-26T14:45:38;12.90;99.90
17423;DHT22;8829;47.932;7.810;2024-02-26T14:48:06;12.90;99.90
17423;DHT22;8829;47.932;7.810;2024-02-26T14:50:33;12.80;99.90
17423;DHT22;8829;47.932;7.810;2024-02-26T14:53:01;12.60;99.90
17423;DHT22;8829;47.932;7.810;2024-02-26T14:55:28;12.60;99.90
17423;DHT22;8829;47.932;7.810;2024-02-26T14:57:55;12.60;99.90
17423;DHT22;8829;47.932;7.810;2024-02-26T15:00:21;12.40;99.90
17423;DHT22;8829;47.932;7.810;2024-02-26T15:02:48;12.40;99.90
17423;DHT22;8829;47.932;7.810;2024-02-26T15:05:15;12.40;99.90
17423;DHT22;8829;47.932;7.810;2024-02-26T15:07:42;12.30;99.90
17423;DHT22;8829;47.932;7.810;2024-02-26T15:10:11;12.30;99.90
17423;DHT22;8829;47.932;7.810;2024-02-26T15:12:37;12.30;99.90
17423;DHT22;8829;47.932;7.810;2024-02-26T15:15:05;12.30;99.90
17423;DHT22;8829;47.932;7.810;2024-02-26T15:17:32;12.20;99.90
17423;DHT22;8829;47.932;7.810;2024-02-26T15:20:00;12.20;99.90
17423;DHT22;8829;47.932;7.810;2024-02-26T15:22:27;12.30;99.90
17423;DHT22;8829;47.932;7.810;2024-02-26T15:24:54;12.40;99.90
17423;DHT22;8829;47.932;7.810;2024-02-26T15:27:22;12.50;99.90
17423;DHT22;8829;47.932;7.810;2024-02-26T15:29:48;12.50;99.90
17423;DHT22;8829;47.932;7.810;2024-02-26T15:32:21;12.60;99.90
17423;DHT22;8829;47.932;7.810;2024-02-26T15:34:49;12.60;99.90
17423;DHT22;8829;47.932;7.810;2024-02-26T15:37:17;12.70;99.90
17423;DHT22;8829;47.932;7.810;2024-02-26T15:39:44;12.70;99.90
17423;DHT22;8829;47.932;7.810;2024-02-26T15:42:11;12.70;99.90
17423;DHT22;8829;47.932;7.810;2024-02-26T15:44:39;12.60;99.90
17423;DHT22;8829;47.932;7.810;2024-02-26T15:47:06;12.50;99.90
17423;DHT22;8829;47.932;7.810;2024-02-26T15:49:33;12.30;99.90
17423;DHT22;8829;47.932;7.810;2024-02-26T15:52:00;12.30;99.90
17423;DHT22;8829;47.932;7.810;2024-02-26T15:54:27;12.30;99.90
17423;DHT22;8829;47.932;7.810;2024-02-26T15:56:53;12.40;99.90
17423;DHT22;8829;47.932;7.810;2024-02-26T15:59:20;12.40;99.90
17423;DHT22;8829;47.932;7.810;2024-02-26T16:01:49;12.40;99.90